createdAt,value
2019-03-19T00:01:56.379Z,3.70
2019-03-19T00:04:24.759Z,4.33
2019-03-19T00:06:53.135Z,4.70
2019-03-19T00:09:21.482Z,4.83
2019-03-19T00:11:50.726Z,4.13
2019-03-19T00:14:19.096Z,5.33
2019-03-19T00:16:47.456Z,5.37
2019-03-19T00:19:15.876Z,4.80
2019-03-19T00:21:44.209Z,5.62
2019-03-19T00:24:12.582Z,6.03
2019-03-19T00:26:40.928Z,7.00
2019-03-19T00:29:09.261Z,5.63
2019-03-19T00:31:37.600Z,4.93
2019-03-19T00:34:05.961Z,6.82
2019-03-19T00:36:34.348Z,5.27
2019-03-19T00:39:02.695Z,6.40
2019-03-19T00:41:31.053Z,5.00
2019-03-19T00:43:59.403Z,6.35
2019-03-19T00:46:27.755Z,4.97
2019-03-19T00:48:56.173Z,5.10
2019-03-19T00:51:24.528Z,6.20
2019-03-19T00:53:52.869Z,7.43
2019-03-19T00:56:21.207Z,6.30
2019-03-19T00:58:49.568Z,6.10
2019-03-19T01:01:17.988Z,6.68
2019-03-19T01:03:46.393Z,6.70
2019-03-19T01:06:14.796Z,5.73
2019-03-19T01:08:43.148Z,7.37
2019-03-19T01:11:11.485Z,4.70
2019-03-19T01:13:39.830Z,6.10
2019-03-19T01:16:08.173Z,5.80
2019-03-19T01:22:48.414Z,6.80
2019-03-19T01:25:17.012Z,5.77
2019-03-19T01:27:45.340Z,6.10
2019-03-19T01:30:15.601Z,4.93
2019-03-19T01:32:43.948Z,6.70
2019-03-19T01:35:12.387Z,6.67
2019-03-19T01:37:40.768Z,5.97
2019-03-19T01:40:11.794Z,7.60
2019-03-19T01:42:40.135Z,5.73
2019-03-19T01:45:09.299Z,5.33
2019-03-19T01:47:37.728Z,6.85
2019-03-19T01:50:06.777Z,5.90
2019-03-19T01:52:35.169Z,7.57
2019-03-19T01:55:03.534Z,5.90
2019-03-19T01:57:32.219Z,7.10
2019-03-19T02:00:00.635Z,5.50
2019-03-19T02:02:28.940Z,6.35
2019-03-19T02:04:57.287Z,5.43
2019-03-19T02:07:26.585Z,5.93
2019-03-19T02:09:54.948Z,6.62
2019-03-19T02:12:23.299Z,6.20
2019-03-19T02:14:51.648Z,6.78
2019-03-19T02:17:19.992Z,6.73
2019-03-19T02:19:48.332Z,5.43
2019-03-19T02:22:16.681Z,5.40
2019-03-19T02:24:45.121Z,5.80
2019-03-19T02:27:13.464Z,5.50
2019-03-19T02:29:41.842Z,6.57
2019-03-19T02:32:10.234Z,7.00
2019-03-19T02:37:13.882Z,7.80
2019-03-19T02:39:42.272Z,6.13
2019-03-19T02:42:10.761Z,7.03
2019-03-19T02:44:39.117Z,7.32
2019-03-19T02:47:07.465Z,6.90
2019-03-19T02:49:36.877Z,8.20
2019-03-19T02:52:05.856Z,6.80
2019-03-19T02:54:34.302Z,6.30
2019-03-19T02:57:02.669Z,8.88
2019-03-19T02:59:31.150Z,8.70
2019-03-19T03:01:59.487Z,10.60
2019-03-19T03:04:27.915Z,9.30
2019-03-19T03:06:56.244Z,7.30
2019-03-19T03:09:24.608Z,6.13
2019-03-19T03:11:52.942Z,7.50
2019-03-19T03:14:21.281Z,8.57
2019-03-19T03:16:49.633Z,7.20
2019-03-19T03:19:18.000Z,8.80
2019-03-19T03:21:46.327Z,5.60
2019-03-19T03:24:14.661Z,6.40
2019-03-19T03:26:48.319Z,7.53
2019-03-19T03:29:11.430Z,5.37
2019-03-19T03:31:39.818Z,7.03
2019-03-19T03:34:08.323Z,6.00
2019-03-19T03:36:36.685Z,7.12
2019-03-19T03:39:05.065Z,6.07
2019-03-19T03:41:33.397Z,6.20
2019-03-19T03:44:01.866Z,5.87
2019-03-19T03:46:30.190Z,7.30
2019-03-19T03:48:58.544Z,7.12
2019-03-19T03:51:26.907Z,6.53
2019-03-19T03:53:55.348Z,7.13
2019-03-19T03:56:23.672Z,5.87
2019-03-19T03:59:00.591Z,7.22
2019-03-19T04:01:20.385Z,5.83
2019-03-19T04:03:48.775Z,7.90
2019-03-19T04:08:54.473Z,8.80
2019-03-19T04:16:31.276Z,8.50
2019-03-19T04:18:59.631Z,7.17
2019-03-19T04:21:27.965Z,7.13
2019-03-19T04:23:56.363Z,9.30
2019-03-19T04:26:24.809Z,7.00
2019-03-19T04:28:53.173Z,7.43
2019-03-19T04:31:21.510Z,7.17
2019-03-19T04:33:49.904Z,8.80
2019-03-19T04:36:18.266Z,8.53
2019-03-19T04:38:46.611Z,11.80
2019-03-19T04:46:23.446Z,11.68
2019-03-19T04:48:51.831Z,9.27
2019-03-19T04:51:20.244Z,8.93
2019-03-19T04:53:48.616Z,8.63
2019-03-19T04:56:16.984Z,8.80
2019-03-19T04:58:46.218Z,8.60
2019-03-19T05:01:14.564Z,11.40
2019-03-19T05:03:42.893Z,9.37
2019-03-19T05:08:45.536Z,10.75
2019-03-19T05:11:13.889Z,9.73
2019-03-19T05:13:42.216Z,11.90
2019-03-19T05:16:10.605Z,9.40
2019-03-19T05:18:39.046Z,10.53
2019-03-19T05:21:07.414Z,10.20
2019-03-19T05:23:35.766Z,12.90
2019-03-19T05:26:04.113Z,10.60
2019-03-19T05:31:06.751Z,11.70
2019-03-19T05:33:35.081Z,11.43
2019-03-19T05:36:03.420Z,9.93
2019-03-19T05:38:32.727Z,12.65
2019-03-19T05:41:01.101Z,11.00
2019-03-19T05:43:29.490Z,10.97
2019-03-19T05:45:57.867Z,11.47
2019-03-19T05:48:26.289Z,12.70
2019-03-19T05:53:31.860Z,15.43
2019-03-19T05:56:00.392Z,14.43
2019-03-19T05:58:28.753Z,11.57
2019-03-19T06:00:57.257Z,15.38
2019-03-19T06:03:25.613Z,16.25
2019-03-19T06:05:54.054Z,12.83
2019-03-19T06:08:22.388Z,15.68
2019-03-19T06:10:50.745Z,13.73
2019-03-19T06:13:19.293Z,15.80
2019-03-19T06:15:47.883Z,12.80
2019-03-19T06:18:16.216Z,12.53
2019-03-19T06:20:44.637Z,16.13
2019-03-19T06:23:13.411Z,15.13
2019-03-19T06:28:16.043Z,14.73
2019-03-19T06:30:44.367Z,12.83
2019-03-19T06:33:12.702Z,11.47
2019-03-19T06:35:42.025Z,12.13
2019-03-19T06:38:10.387Z,11.03
2019-03-19T06:40:38.761Z,12.60
2019-03-19T06:43:07.150Z,10.50
2019-03-19T06:45:35.532Z,9.13
2019-03-19T06:48:03.879Z,11.50
2019-03-19T06:50:32.219Z,12.65
2019-03-19T06:53:00.551Z,13.53
2019-03-19T06:55:28.913Z,12.43
2019-03-19T06:57:57.259Z,10.00
2019-03-19T07:00:25.596Z,11.90
2019-03-19T07:02:53.943Z,9.77
2019-03-19T07:07:56.462Z,11.73
2019-03-19T07:10:25.735Z,12.57
2019-03-19T07:12:54.072Z,11.00
2019-03-19T07:17:56.688Z,12.95
2019-03-19T07:20:25.917Z,10.73
2019-03-19T07:22:54.331Z,9.47
2019-03-19T07:25:22.677Z,10.50
2019-03-19T07:27:51.011Z,10.00
2019-03-19T07:30:23.649Z,11.40
2019-03-19T07:32:52.010Z,12.10
2019-03-19T07:35:20.339Z,10.63
2019-03-19T07:40:25.981Z,12.23
2019-03-19T07:42:54.301Z,12.40
2019-03-19T07:45:22.649Z,12.07
2019-03-19T07:47:51.033Z,11.23
2019-03-19T07:50:20.877Z,10.77
2019-03-19T07:52:49.251Z,9.03
2019-03-19T07:55:17.605Z,10.10
2019-03-19T07:57:46.081Z,11.43
2019-03-19T08:00:14.407Z,11.10
2019-03-19T08:02:43.700Z,10.77
2019-03-19T08:05:12.047Z,10.30
2019-03-19T08:07:40.389Z,9.60
2019-03-19T08:12:43.914Z,10.48
2019-03-19T08:15:13.170Z,10.07
2019-03-19T08:17:42.946Z,9.57
2019-03-19T08:20:09.859Z,10.63
2019-03-19T08:22:38.227Z,10.95
2019-03-19T08:25:08.786Z,9.10
2019-03-19T08:27:35.830Z,9.30
2019-03-19T08:30:04.187Z,12.10
2019-03-19T08:32:32.559Z,9.70
2019-03-19T08:35:00.943Z,10.43
2019-03-19T08:37:29.323Z,10.27
2019-03-19T08:39:57.668Z,10.77
2019-03-19T08:45:03.332Z,10.52
2019-03-19T08:47:31.783Z,10.20
2019-03-19T08:50:00.134Z,9.80
2019-03-19T08:52:28.480Z,9.53
2019-03-19T08:54:56.813Z,9.43
2019-03-19T08:57:25.148Z,10.70
2019-03-19T08:59:53.511Z,10.77
2019-03-19T09:02:23.000Z,11.90
2019-03-19T09:04:51.420Z,10.17
2019-03-19T09:09:40.452Z,10.55
2019-03-19T09:12:08.798Z,9.90
2019-03-19T09:14:37.147Z,9.47
2019-03-19T09:17:05.494Z,8.30
2019-03-19T09:19:33.833Z,8.10
2019-03-19T09:22:02.188Z,7.70
2019-03-19T09:24:30.579Z,7.25
2019-03-19T09:26:58.930Z,7.10
2019-03-19T09:29:27.268Z,8.15
2019-03-19T09:31:56.532Z,7.80
2019-03-19T09:34:24.885Z,8.67
2019-03-19T09:36:57.620Z,8.13
2019-03-19T09:39:22.483Z,8.90
2019-03-19T09:41:50.827Z,8.33
2019-03-19T09:44:19.181Z,8.03
2019-03-19T09:46:47.547Z,8.00
2019-03-19T09:49:15.904Z,8.57
2019-03-19T09:51:44.244Z,8.63
2019-03-19T09:54:12.610Z,7.20
2019-03-19T09:56:40.952Z,8.03
2019-03-19T09:59:09.310Z,6.40
2019-03-19T10:01:37.647Z,5.10
2019-03-19T10:04:05.999Z,7.40
2019-03-19T10:09:08.651Z,7.67
2019-03-19T10:11:36.984Z,9.40
2019-03-19T10:14:05.329Z,8.17
2019-03-19T10:16:33.680Z,8.43
2019-03-19T10:19:02.056Z,7.70
2019-03-19T10:21:30.415Z,7.53
2019-03-19T10:23:58.739Z,8.00
2019-03-19T10:26:27.089Z,9.25
2019-03-19T10:28:55.422Z,8.87
2019-03-19T10:31:24.076Z,7.30
2019-03-19T10:33:52.434Z,7.60
2019-03-19T10:36:20.782Z,7.40
2019-03-19T10:38:49.229Z,10.00
2019-03-19T10:41:17.653Z,7.60
2019-03-19T10:43:46.011Z,5.23
2019-03-19T10:46:14.960Z,7.70
2019-03-19T10:48:42.731Z,6.33
2019-03-19T10:51:11.094Z,4.70
2019-03-19T10:56:16.800Z,6.00
2019-03-19T11:01:20.565Z,3.77
2019-03-19T11:03:49.858Z,4.90
2019-03-19T11:06:18.217Z,5.20
2019-03-19T11:08:46.590Z,4.60
2019-03-19T11:11:14.953Z,4.10
2019-03-19T11:13:43.285Z,3.60
2019-03-19T11:16:11.647Z,3.43
2019-03-19T11:18:40.066Z,4.90
2019-03-19T11:21:08.380Z,5.20
2019-03-19T11:23:36.728Z,4.30
2019-03-19T11:26:05.071Z,5.43
2019-03-19T11:28:33.560Z,4.57
2019-03-19T11:31:01.922Z,4.17
2019-03-19T11:33:30.260Z,4.73
2019-03-19T11:35:58.613Z,4.90
2019-03-19T11:38:26.941Z,4.43
2019-03-19T11:40:55.292Z,3.33
2019-03-19T11:43:23.652Z,4.40
2019-03-19T11:45:52.015Z,4.37
2019-03-19T11:48:20.368Z,3.70
2019-03-19T11:50:48.759Z,3.37
2019-03-19T11:53:17.118Z,3.70
2019-03-19T11:55:45.538Z,5.17
2019-03-19T12:00:48.451Z,5.00
2019-03-19T12:03:16.854Z,3.67
2019-03-19T12:05:45.224Z,3.10
2019-03-19T12:08:13.585Z,4.90
2019-03-19T12:10:41.948Z,4.40
2019-03-19T12:13:10.291Z,5.00
2019-03-19T12:15:38.879Z,4.27
2019-03-19T12:18:07.240Z,4.20
2019-03-19T12:20:35.598Z,5.05
2019-03-19T12:23:04.144Z,4.50
2019-03-19T12:28:06.800Z,5.00
2019-03-19T12:30:35.288Z,4.97
2019-03-19T12:35:37.981Z,6.43
2019-03-19T12:38:06.326Z,5.50
2019-03-19T12:40:37.250Z,6.10
2019-03-19T12:43:03.090Z,3.90
2019-03-19T12:45:31.442Z,3.80
2019-03-19T12:50:34.124Z,3.00
2019-03-19T12:53:02.523Z,3.30
2019-03-19T12:58:10.177Z,5.10
2019-03-19T13:00:38.536Z,4.20
2019-03-19T13:03:06.897Z,2.97
2019-03-19T13:05:35.241Z,2.53
2019-03-19T13:08:03.630Z,2.40
2019-03-19T13:10:31.969Z,2.90
2019-03-19T13:13:00.355Z,3.30
2019-03-19T13:15:28.694Z,3.80
2019-03-19T13:17:57.057Z,3.62
2019-03-19T13:22:59.652Z,2.80
2019-03-19T13:25:28.120Z,3.27
2019-03-19T13:27:56.449Z,2.67
2019-03-19T13:30:28.578Z,3.30
2019-03-19T13:32:56.909Z,3.90
2019-03-19T13:35:25.262Z,6.73
2019-03-19T13:37:53.701Z,5.00
2019-03-19T13:40:22.079Z,3.63
2019-03-19T13:42:50.460Z,4.27
2019-03-19T13:45:18.852Z,5.57
2019-03-19T13:47:47.239Z,4.10
2019-03-19T13:50:16.369Z,4.83
2019-03-19T13:52:44.755Z,5.85
2019-03-19T13:55:15.071Z,7.07
2019-03-19T13:57:43.490Z,5.47
2019-03-19T14:00:13.778Z,5.00
2019-03-19T14:02:42.168Z,5.50
2019-03-19T14:05:11.435Z,5.43
2019-03-19T14:07:39.780Z,5.50
2019-03-19T14:10:12.788Z,5.50
2019-03-19T14:12:41.139Z,6.87
2019-03-19T14:17:46.744Z,6.10
2019-03-19T14:20:17.673Z,6.57
2019-03-19T14:22:46.024Z,5.97
2019-03-19T14:27:48.688Z,6.03
2019-03-19T14:30:17.025Z,4.60
2019-03-19T14:32:45.384Z,4.17
2019-03-19T14:35:13.740Z,5.77
2019-03-19T14:37:42.252Z,4.40
2019-03-19T14:42:48.828Z,4.40
2019-03-19T14:45:17.214Z,4.57
2019-03-19T14:47:45.568Z,3.93
2019-03-19T14:50:14.677Z,3.57
2019-03-19T14:52:43.995Z,7.27
2019-03-19T14:56:22.828Z,5.03
2019-03-19T14:58:51.172Z,4.43
2019-03-19T15:01:19.919Z,4.37
2019-03-19T15:03:47.890Z,6.12
2019-03-19T15:06:16.220Z,3.73
2019-03-19T15:08:44.571Z,4.87
2019-03-19T15:11:12.960Z,3.67
2019-03-19T15:13:41.361Z,3.40
2019-03-19T15:16:15.422Z,5.90
2019-03-19T15:18:44.737Z,5.03
2019-03-19T15:21:13.080Z,8.33
2019-03-19T15:23:41.451Z,4.80
2019-03-19T15:26:09.794Z,5.33
2019-03-19T15:28:38.156Z,5.30
2019-03-19T15:31:06.501Z,6.30
2019-03-19T15:33:34.857Z,6.63
2019-03-19T15:36:03.205Z,6.15
2019-03-19T15:38:31.551Z,7.70
2019-03-19T15:40:59.889Z,4.97
2019-03-19T15:43:28.245Z,4.87
2019-03-19T15:48:30.869Z,7.20
2019-03-19T15:51:00.204Z,4.93
2019-03-19T15:56:05.919Z,7.17
2019-03-19T15:58:34.356Z,7.32
2019-03-19T16:01:02.701Z,6.18
2019-03-19T16:03:31.044Z,6.27
2019-03-19T16:05:59.501Z,6.18
2019-03-19T16:08:27.860Z,7.20
2019-03-19T16:10:56.247Z,6.13
2019-03-19T16:13:24.603Z,7.70
2019-03-19T16:15:52.966Z,6.97
2019-03-19T16:18:21.292Z,8.40
2019-03-19T16:20:49.657Z,5.78
2019-03-19T16:23:18.040Z,6.97
2019-03-19T16:25:46.414Z,6.10
2019-03-19T16:28:14.825Z,6.63
2019-03-19T16:30:43.191Z,5.20
2019-03-19T16:33:11.544Z,6.80
2019-03-19T16:35:39.890Z,5.27
2019-03-19T16:38:08.241Z,6.68
2019-03-19T16:40:36.636Z,5.30
2019-03-19T16:43:04.996Z,5.40
2019-03-19T16:45:33.358Z,10.93
2019-03-19T16:48:01.694Z,7.80
2019-03-19T16:50:30.051Z,6.35
2019-03-19T16:52:58.450Z,12.50
2019-03-19T16:55:26.960Z,7.63
2019-03-19T16:57:55.512Z,9.75
2019-03-19T17:00:25.636Z,11.23
2019-03-19T17:02:54.035Z,7.30
2019-03-19T17:05:22.377Z,5.40
2019-03-19T17:07:50.711Z,8.57
2019-03-19T17:10:29.073Z,9.35
2019-03-19T17:12:57.412Z,6.67
2019-03-19T17:15:26.763Z,8.07
2019-03-19T17:17:55.182Z,5.53
2019-03-19T17:20:23.522Z,8.00
2019-03-19T17:22:51.893Z,5.67
2019-03-19T17:25:21.736Z,8.60
2019-03-19T17:27:50.107Z,9.70
2019-03-19T17:30:33.771Z,4.70
2019-03-19T17:33:04.104Z,5.90
2019-03-19T17:35:32.449Z,5.17
2019-03-19T17:38:00.791Z,7.37
2019-03-19T17:40:29.162Z,6.15
2019-03-19T17:42:57.494Z,6.60
2019-03-19T17:45:25.850Z,5.93
2019-03-19T17:47:55.129Z,7.60
2019-03-19T17:50:28.100Z,7.13
2019-03-19T17:52:56.609Z,6.83
2019-03-19T17:55:24.826Z,6.30
2019-03-19T17:57:53.159Z,6.30
2019-03-19T18:00:21.502Z,6.73
2019-03-19T18:02:49.866Z,7.33
2019-03-19T18:05:18.249Z,11.85
2019-03-19T18:07:46.580Z,7.67
2019-03-19T18:10:14.962Z,6.63
2019-03-19T18:12:43.303Z,5.30
2019-03-19T18:15:12.561Z,5.33
2019-03-19T18:17:40.924Z,9.20
2019-03-19T18:22:43.646Z,10.73
2019-03-19T18:25:14.906Z,6.37
2019-03-19T18:27:43.296Z,9.80
2019-03-19T18:30:16.865Z,7.70
2019-03-19T18:32:45.247Z,9.03
2019-03-19T18:35:14.626Z,7.70
2019-03-19T18:37:43.001Z,10.43
2019-03-19T18:42:46.556Z,13.90
2019-03-19T18:45:15.800Z,8.23
2019-03-19T18:47:44.183Z,8.77
2019-03-19T18:50:22.269Z,10.63
2019-03-19T18:52:50.664Z,9.80
2019-03-19T18:55:19.035Z,8.90
2019-03-19T18:57:47.415Z,9.60
2019-03-19T19:00:17.338Z,10.60
2019-03-19T19:02:50.298Z,11.00
2019-03-19T19:05:15.608Z,9.00
2019-03-19T19:07:44.001Z,7.33
2019-03-19T19:10:13.881Z,10.02
2019-03-19T19:12:42.231Z,9.52
2019-03-19T19:15:26.985Z,6.63
2019-03-19T19:17:55.369Z,11.27
2019-03-19T19:20:23.703Z,7.10
2019-03-19T19:25:36.290Z,8.93
2019-03-19T19:28:04.677Z,5.70
2019-03-19T19:30:33.021Z,7.77
2019-03-19T19:33:02.518Z,7.40
2019-03-19T19:35:29.708Z,6.67
2019-03-19T19:37:58.088Z,8.48
2019-03-19T19:40:26.486Z,8.00
2019-03-19T19:42:54.832Z,10.10
2019-03-19T19:45:23.178Z,7.10
2019-03-19T19:47:51.578Z,10.87
2019-03-19T19:50:19.977Z,10.60
2019-03-19T19:52:49.269Z,8.23
2019-03-19T19:55:17.705Z,11.07
2019-03-19T19:57:46.192Z,12.50
2019-03-19T20:00:19.062Z,9.45
2019-03-19T20:02:47.449Z,11.53
2019-03-19T20:05:15.773Z,9.90
2019-03-19T20:07:44.118Z,8.00
2019-03-19T20:10:14.785Z,6.47
2019-03-19T20:12:43.170Z,7.77
2019-03-19T20:15:11.553Z,9.98
2019-03-19T20:17:39.892Z,8.70
2019-03-19T20:20:08.258Z,9.23
2019-03-19T20:22:36.658Z,9.00
2019-03-19T20:25:05.014Z,12.20
2019-03-19T20:27:33.413Z,14.00
2019-03-19T20:30:01.776Z,9.70
2019-03-19T20:32:30.122Z,7.10
2019-03-19T20:34:58.484Z,13.93
2019-03-19T20:37:26.842Z,7.90
2019-03-19T20:39:55.212Z,9.95
2019-03-19T20:42:23.553Z,9.45
2019-03-19T20:44:52.019Z,10.80
2019-03-19T20:47:20.345Z,13.70
2019-03-19T20:49:48.700Z,20.73
2019-03-19T20:52:17.082Z,18.73
2019-03-19T20:54:45.521Z,11.87
2019-03-19T20:57:13.964Z,17.45
2019-03-19T20:59:42.396Z,14.80
2019-03-19T21:02:10.798Z,12.83
2019-03-19T21:04:39.207Z,14.05
2019-03-19T21:07:07.658Z,10.23
2019-03-19T21:09:36.149Z,11.27
2019-03-19T21:12:04.534Z,8.37
2019-03-19T21:14:33.027Z,11.25
2019-03-19T21:17:01.375Z,12.18
2019-03-19T21:19:29.760Z,8.40
2019-03-19T21:22:00.449Z,12.27
2019-03-19T21:24:26.622Z,9.17
2019-03-19T21:26:54.954Z,10.00
2019-03-19T21:31:57.557Z,10.90
2019-03-19T21:34:25.939Z,13.70
2019-03-19T21:36:54.330Z,9.07
2019-03-19T21:39:22.702Z,9.50
2019-03-19T21:41:51.094Z,13.15
2019-03-19T21:44:19.469Z,9.67
2019-03-19T21:46:47.863Z,11.18
2019-03-19T21:49:16.246Z,10.10
2019-03-19T21:51:45.609Z,14.23
2019-03-19T21:54:13.990Z,11.18
2019-03-19T21:56:42.376Z,8.30
2019-03-19T21:59:10.725Z,9.50
2019-03-19T22:01:39.308Z,10.10
2019-03-19T22:04:07.665Z,9.70
2019-03-19T22:06:36.070Z,8.67
2019-03-19T22:09:04.483Z,10.07
2019-03-19T22:11:32.849Z,8.03
2019-03-19T22:14:01.226Z,9.27
2019-03-19T22:16:29.604Z,10.00
2019-03-19T22:18:58.087Z,10.30
2019-03-19T22:21:26.442Z,10.35
2019-03-19T22:23:54.843Z,9.73
2019-03-19T22:26:23.177Z,8.82
2019-03-19T22:28:52.420Z,8.50
2019-03-19T22:31:22.683Z,11.23
2019-03-19T22:33:51.071Z,7.80
2019-03-19T22:36:19.478Z,11.70
2019-03-19T22:38:47.943Z,10.43
2019-03-19T22:42:17.357Z,9.13
2019-03-19T22:44:45.729Z,9.40
2019-03-19T22:47:14.110Z,7.77
2019-03-19T22:49:42.581Z,10.43
2019-03-19T22:54:45.231Z,8.52
2019-03-19T22:57:13.569Z,8.63
2019-03-19T22:59:41.921Z,8.67
2019-03-19T23:02:11.217Z,9.98
2019-03-19T23:04:39.586Z,7.20
2019-03-19T23:09:42.168Z,8.05
2019-03-19T23:12:10.507Z,8.53
2019-03-19T23:14:38.877Z,7.00
2019-03-19T23:17:07.263Z,7.60
2019-03-19T23:19:36.530Z,7.80
2019-03-19T23:22:04.927Z,10.30
2019-03-19T23:24:33.257Z,8.87
2019-03-19T23:27:01.626Z,10.40
2019-03-19T23:29:30.092Z,10.43
2019-03-19T23:31:58.583Z,9.32
2019-03-19T23:34:26.931Z,9.50
2019-03-19T23:36:55.306Z,10.30
2019-03-19T23:39:23.709Z,7.67
2019-03-19T23:41:52.102Z,9.33
2019-03-19T23:44:20.466Z,12.27
2019-03-19T23:46:48.814Z,7.70
2019-03-19T23:49:17.164Z,12.05
2019-03-19T23:51:45.554Z,8.90
2019-03-19T23:56:50.124Z,12.40
2019-03-19T23:59:18.471Z,9.70
